sensor_id;sensor_type;location;lat;lon;timestamp;P1;durP1;ratioP1;P2;durP2;ratioP2
32768;SDS011;23049;54.304;8.826;2022-07-29T00:00:43;12.82;;;5.68;;
32768;SDS011;23049;54.304;8.826;2022-07-29T00:03:11;5.45;;;4.18;;
32768;SDS011;23049;54.304;8.826;2022-07-29T00:05:38;12.95;;;4.80;;
32768;SDS011;23049;54.304;8.826;2022-07-29T00:08:05;8.45;;;4.00;;
32768;SDS011;23049;54.304;8.826;2022-07-29T00:10:31;9.85;;;4.47;;
32768;SDS011;23049;54.304;8.826;2022-07-29T00:12:57;8.52;;;4.13;;
32768;SDS011;23049;54.304;8.826;2022-07-29T00:15:22;8.35;;;4.32;;
32768;SDS011;23049;54.304;8.826;2022-07-29T00:17:48;4.45;;;3.78;;
32768;SDS011;23049;54.304;8.826;2022-07-29T00:20:14;7.50;;;3.83;;
32768;SDS011;23049;54.304;8.826;2022-07-29T00:22:39;6.72;;;4.55;;
32768;SDS011;23049;54.304;8.826;2022-07-29T00:25:05;6.55;;;3.67;;
32768;SDS011;23049;54.304;8.826;2022-07-29T00:27:32;8.18;;;4.15;;
32768;SDS011;23049;54.304;8.826;2022-07-29T00:29:58;7.40;;;4.25;;
32768;SDS011;23049;54.304;8.826;2022-07-29T00:32:23;10.82;;;4.30;;
32768;SDS011;23049;54.304;8.826;2022-07-29T00:34:49;8.85;;;4.80;;
32768;SDS011;23049;54.304;8.826;2022-07-29T00:37:33;8.80;;;4.70;;
32768;SDS011;23049;54.304;8.826;2022-07-29T00:39:59;8.98;;;5.07;;
32768;SDS011;23049;54.304;8.826;2022-07-29T00:42:24;7.53;;;5.43;;
32768;SDS011;23049;54.304;8.826;2022-07-29T00:44:50;11.68;;;5.70;;
32768;SDS011;23049;54.304;8.826;2022-07-29T00:47:15;8.68;;;5.50;;
32768;SDS011;23049;54.304;8.826;2022-07-29T00:49:41;10.77;;;5.45;;
32768;SDS011;23049;54.304;8.826;2022-07-29T00:52:08;8.75;;;5.95;;
32768;SDS011;23049;54.304;8.826;2022-07-29T00:54:36;11.70;;;5.63;;
32768;SDS011;23049;54.304;8.826;2022-07-29T00:57:04;6.68;;;5.63;;
32768;SDS011;23049;54.304;8.826;2022-07-29T00:59:33;10.27;;;5.50;;
32768;SDS011;23049;54.304;8.826;2022-07-29T01:01:59;9.48;;;5.97;;
32768;SDS011;23049;54.304;8.826;2022-07-29T01:04:25;10.35;;;6.88;;
32768;SDS011;23049;54.304;8.826;2022-07-29T01:06:51;14.02;;;6.00;;
32768;SDS011;23049;54.304;8.826;2022-07-29T01:09:19;12.73;;;6.28;;
32768;SDS011;23049;54.304;8.826;2022-07-29T01:11:45;8.43;;;5.65;;
32768;SDS011;23049;54.304;8.826;2022-07-29T01:14:12;10.02;;;6.20;;
32768;SDS011;23049;54.304;8.826;2022-07-29T01:16:46;11.50;;;5.90;;
32768;SDS011;23049;54.304;8.826;2022-07-29T01:30:28;9.75;;;5.70;;
32768;SDS011;23049;54.304;8.826;2022-07-29T01:34:07;8.52;;;6.35;;
32768;SDS011;23049;54.304;8.826;2022-07-29T01:39:22;11.25;;;6.68;;
32768;SDS011;23049;54.304;8.826;2022-07-29T01:44:34;10.90;;;7.22;;
32768;SDS011;23049;54.304;8.826;2022-07-29T01:47:05;10.13;;;7.07;;
32768;SDS011;23049;54.304;8.826;2022-07-29T01:49:41;9.23;;;6.05;;
32768;SDS011;23049;54.304;8.826;2022-07-29T01:52:21;10.40;;;6.55;;
32768;SDS011;23049;54.304;8.826;2022-07-29T01:54:53;10.48;;;6.43;;
32768;SDS011;23049;54.304;8.826;2022-07-29T01:57:25;13.07;;;7.00;;
32768;SDS011;23049;54.304;8.826;2022-07-29T01:59:52;9.70;;;6.70;;
32768;SDS011;23049;54.304;8.826;2022-07-29T02:02:21;12.98;;;6.82;;
32768;SDS011;23049;54.304;8.826;2022-07-29T02:04:47;14.18;;;7.57;;
32768;SDS011;23049;54.304;8.826;2022-07-29T02:07:19;9.13;;;6.63;;
32768;SDS011;23049;54.304;8.826;2022-07-29T02:09:47;11.60;;;7.28;;
32768;SDS011;23049;54.304;8.826;2022-07-29T02:12:14;14.52;;;7.78;;
32768;SDS011;23049;54.304;8.826;2022-07-29T02:14:47;9.45;;;6.97;;
32768;SDS011;23049;54.304;8.826;2022-07-29T02:17:15;11.68;;;7.13;;
32768;SDS011;23049;54.304;8.826;2022-07-29T02:19:57;10.18;;;7.35;;
32768;SDS011;23049;54.304;8.826;2022-07-29T02:22:26;12.05;;;7.05;;
32768;SDS011;23049;54.304;8.826;2022-07-29T02:24:54;12.38;;;7.78;;
32768;SDS011;23049;54.304;8.826;2022-07-29T02:27:22;11.65;;;7.93;;
32768;SDS011;23049;54.304;8.826;2022-07-29T02:29:50;9.10;;;7.30;;
32768;SDS011;23049;54.304;8.826;2022-07-29T02:32:18;9.50;;;7.53;;
32768;SDS011;23049;54.304;8.826;2022-07-29T02:34:46;11.77;;;8.27;;
32768;SDS011;23049;54.304;8.826;2022-07-29T02:37:13;12.15;;;7.95;;
32768;SDS011;23049;54.304;8.826;2022-07-29T02:39:41;13.95;;;7.68;;
32768;SDS011;23049;54.304;8.826;2022-07-29T02:42:10;10.93;;;7.90;;
32768;SDS011;23049;54.304;8.826;2022-07-29T02:44:39;12.00;;;8.07;;
32768;SDS011;23049;54.304;8.826;2022-07-29T02:47:18;12.77;;;7.82;;
32768;SDS011;23049;54.304;8.826;2022-07-29T02:50:06;10.63;;;8.10;;
32768;SDS011;23049;54.304;8.826;2022-07-29T02:53:09;12.63;;;7.30;;
32768;SDS011;23049;54.304;8.826;2022-07-29T02:55:45;11.43;;;7.93;;
32768;SDS011;23049;54.304;8.826;2022-07-29T02:58:27;14.02;;;7.90;;
32768;SDS011;23049;54.304;8.826;2022-07-29T03:01:03;12.90;;;7.53;;
32768;SDS011;23049;54.304;8.826;2022-07-29T03:03:50;11.73;;;8.10;;
32768;SDS011;23049;54.304;8.826;2022-07-29T03:06:19;13.73;;;8.75;;
32768;SDS011;23049;54.304;8.826;2022-07-29T03:08:47;15.95;;;9.55;;
32768;SDS011;23049;54.304;8.826;2022-07-29T03:11:14;16.90;;;9.52;;
32768;SDS011;23049;54.304;8.826;2022-07-29T03:13:41;16.90;;;9.30;;
32768;SDS011;23049;54.304;8.826;2022-07-29T03:16:08;13.55;;;8.98;;
32768;SDS011;23049;54.304;8.826;2022-07-29T03:18:35;13.57;;;9.05;;
32768;SDS011;23049;54.304;8.826;2022-07-29T03:21:02;15.23;;;8.93;;
32768;SDS011;23049;54.304;8.826;2022-07-29T03:23:28;18.10;;;10.02;;
32768;SDS011;23049;54.304;8.826;2022-07-29T03:25:54;15.02;;;9.73;;
32768;SDS011;23049;54.304;8.826;2022-07-29T03:28:20;15.55;;;9.38;;
32768;SDS011;23049;54.304;8.826;2022-07-29T03:30:46;17.75;;;10.20;;
32768;SDS011;23049;54.304;8.826;2022-07-29T03:33:12;17.63;;;9.73;;
32768;SDS011;23049;54.304;8.826;2022-07-29T03:35:38;16.65;;;10.02;;
32768;SDS011;23049;54.304;8.826;2022-07-29T03:38:04;12.15;;;9.45;;
32768;SDS011;23049;54.304;8.826;2022-07-29T03:43:11;13.63;;;9.70;;
32768;SDS011;23049;54.304;8.826;2022-07-29T03:45:41;14.68;;;8.90;;
32768;SDS011;23049;54.304;8.826;2022-07-29T03:48:10;13.80;;;8.80;;
32768;SDS011;23049;54.304;8.826;2022-07-29T03:50:38;12.95;;;9.18;;
32768;SDS011;23049;54.304;8.826;2022-07-29T03:53:04;16.20;;;8.93;;
32768;SDS011;23049;54.304;8.826;2022-07-29T03:55:32;13.38;;;8.80;;
32768;SDS011;23049;54.304;8.826;2022-07-29T03:58:02;13.15;;;9.43;;
32768;SDS011;23049;54.304;8.826;2022-07-29T04:00:28;14.73;;;8.38;;
32768;SDS011;23049;54.304;8.826;2022-07-29T04:02:55;15.50;;;9.25;;
32768;SDS011;23049;54.304;8.826;2022-07-29T04:05:21;14.88;;;9.10;;
32768;SDS011;23049;54.304;8.826;2022-07-29T04:07:47;13.13;;;9.13;;
32768;SDS011;23049;54.304;8.826;2022-07-29T04:10:14;16.80;;;8.65;;
32768;SDS011;23049;54.304;8.826;2022-07-29T04:12:42;15.95;;;8.80;;
32768;SDS011;23049;54.304;8.826;2022-07-29T04:15:08;15.55;;;8.57;;
32768;SDS011;23049;54.304;8.826;2022-07-29T04:17:34;14.68;;;7.95;;
32768;SDS011;23049;54.304;8.826;2022-07-29T04:19:59;15.70;;;8.23;;
32768;SDS011;23049;54.304;8.826;2022-07-29T04:22:25;15.20;;;8.38;;
32768;SDS011;23049;54.304;8.826;2022-07-29T04:24:50;14.30;;;8.55;;
32768;SDS011;23049;54.304;8.826;2022-07-29T04:27:16;13.38;;;8.30;;
32768;SDS011;23049;54.304;8.826;2022-07-29T04:29:42;12.38;;;8.40;;
32768;SDS011;23049;54.304;8.826;2022-07-29T04:32:07;13.18;;;8.07;;
32768;SDS011;23049;54.304;8.826;2022-07-29T04:34:33;15.77;;;8.13;;
32768;SDS011;23049;54.304;8.826;2022-07-29T04:36:58;15.90;;;9.27;;
32768;SDS011;23049;54.304;8.826;2022-07-29T04:39:24;15.73;;;8.35;;
32768;SDS011;23049;54.304;8.826;2022-07-29T04:41:50;14.85;;;8.80;;
32768;SDS011;23049;54.304;8.826;2022-07-29T04:44:16;14.95;;;8.80;;
32768;SDS011;23049;54.304;8.826;2022-07-29T04:46:42;15.85;;;9.13;;
32768;SDS011;23049;54.304;8.826;2022-07-29T04:49:08;14.10;;;9.07;;
32768;SDS011;23049;54.304;8.826;2022-07-29T04:51:34;15.65;;;9.38;;
32768;SDS011;23049;54.304;8.826;2022-07-29T04:54:02;14.63;;;8.40;;
32768;SDS011;23049;54.304;8.826;2022-07-29T04:56:28;12.00;;;8.73;;
32768;SDS011;23049;54.304;8.826;2022-07-29T04:58:54;16.83;;;8.73;;
32768;SDS011;23049;54.304;8.826;2022-07-29T05:01:20;11.73;;;7.07;;
32768;SDS011;23049;54.304;8.826;2022-07-29T05:03:45;9.77;;;6.85;;
32768;SDS011;23049;54.304;8.826;2022-07-29T05:06:11;9.57;;;6.55;;
32768;SDS011;23049;54.304;8.826;2022-07-29T05:08:37;10.02;;;5.53;;
32768;SDS011;23049;54.304;8.826;2022-07-29T05:11:03;7.13;;;5.05;;
32768;SDS011;23049;54.304;8.826;2022-07-29T05:13:29;7.03;;;5.05;;
32768;SDS011;23049;54.304;8.826;2022-07-29T05:15:54;6.10;;;5.10;;
32768;SDS011;23049;54.304;8.826;2022-07-29T05:18:20;8.05;;;4.30;;
32768;SDS011;23049;54.304;8.826;2022-07-29T05:20:46;6.80;;;4.35;;
32768;SDS011;23049;54.304;8.826;2022-07-29T05:23:12;5.88;;;3.75;;
32768;SDS011;23049;54.304;8.826;2022-07-29T05:25:37;6.60;;;4.13;;
32768;SDS011;23049;54.304;8.826;2022-07-29T05:28:03;8.95;;;4.10;;
32768;SDS011;23049;54.304;8.826;2022-07-29T05:30:29;9.32;;;4.32;;
32768;SDS011;23049;54.304;8.826;2022-07-29T05:32:55;7.95;;;4.53;;
32768;SDS011;23049;54.304;8.826;2022-07-29T05:35:21;9.23;;;5.10;;
32768;SDS011;23049;54.304;8.826;2022-07-29T05:37:46;7.13;;;4.88;;
32768;SDS011;23049;54.304;8.826;2022-07-29T05:40:12;8.02;;;5.38;;
32768;SDS011;23049;54.304;8.826;2022-07-29T05:42:38;8.85;;;5.53;;
32768;SDS011;23049;54.304;8.826;2022-07-29T05:45:04;8.75;;;4.90;;
32768;SDS011;23049;54.304;8.826;2022-07-29T05:47:30;10.32;;;5.07;;
32768;SDS011;23049;54.304;8.826;2022-07-29T05:49:55;9.20;;;5.13;;
32768;SDS011;23049;54.304;8.826;2022-07-29T05:52:22;7.05;;;4.93;;
32768;SDS011;23049;54.304;8.826;2022-07-29T05:54:48;9.57;;;5.20;;
32768;SDS011;23049;54.304;8.826;2022-07-29T05:57:21;6.85;;;4.65;;
32768;SDS011;23049;54.304;8.826;2022-07-29T05:59:48;7.35;;;4.53;;
32768;SDS011;23049;54.304;8.826;2022-07-29T06:02:14;7.10;;;5.03;;
32768;SDS011;23049;54.304;8.826;2022-07-29T06:04:41;7.72;;;4.50;;
32768;SDS011;23049;54.304;8.826;2022-07-29T06:07:07;8.52;;;4.55;;
32768;SDS011;23049;54.304;8.826;2022-07-29T06:09:33;8.02;;;3.88;;
32768;SDS011;23049;54.304;8.826;2022-07-29T06:11:59;9.60;;;5.03;;
32768;SDS011;23049;54.304;8.826;2022-07-29T06:14:25;6.07;;;3.47;;
32768;SDS011;23049;54.304;8.826;2022-07-29T06:16:51;7.57;;;4.13;;
32768;SDS011;23049;54.304;8.826;2022-07-29T06:19:18;5.85;;;3.55;;
32768;SDS011;23049;54.304;8.826;2022-07-29T06:21:43;6.72;;;3.50;;
32768;SDS011;23049;54.304;8.826;2022-07-29T06:24:10;7.50;;;4.03;;
32768;SDS011;23049;54.304;8.826;2022-07-29T06:26:37;6.75;;;3.88;;
32768;SDS011;23049;54.304;8.826;2022-07-29T06:29:04;6.95;;;3.85;;
32768;SDS011;23049;54.304;8.826;2022-07-29T06:31:30;8.00;;;3.80;;
32768;SDS011;23049;54.304;8.826;2022-07-29T06:33:55;8.25;;;3.50;;
32768;SDS011;23049;54.304;8.826;2022-07-29T06:36:21;6.70;;;3.58;;
32768;SDS011;23049;54.304;8.826;2022-07-29T06:38:46;6.03;;;3.30;;
32768;SDS011;23049;54.304;8.826;2022-07-29T06:41:12;9.02;;;4.05;;
32768;SDS011;23049;54.304;8.826;2022-07-29T06:43:41;8.75;;;3.33;;
32768;SDS011;23049;54.304;8.826;2022-07-29T06:46:10;8.25;;;3.58;;
32768;SDS011;23049;54.304;8.826;2022-07-29T06:48:40;6.07;;;3.38;;
32768;SDS011;23049;54.304;8.826;2022-07-29T06:51:10;8.02;;;3.08;;
32768;SDS011;23049;54.304;8.826;2022-07-29T06:53:36;10.77;;;3.10;;
32768;SDS011;23049;54.304;8.826;2022-07-29T06:56:03;7.22;;;2.85;;
32768;SDS011;23049;54.304;8.826;2022-07-29T06:58:30;5.30;;;3.17;;
32768;SDS011;23049;54.304;8.826;2022-07-29T07:00:57;10.05;;;3.38;;
32768;SDS011;23049;54.304;8.826;2022-07-29T07:03:28;8.07;;;3.35;;
32768;SDS011;23049;54.304;8.826;2022-07-29T07:05:54;5.18;;;2.97;;
32768;SDS011;23049;54.304;8.826;2022-07-29T07:08:20;5.72;;;2.95;;
32768;SDS011;23049;54.304;8.826;2022-07-29T07:10:47;7.45;;;3.17;;
32768;SDS011;23049;54.304;8.826;2022-07-29T07:13:57;10.90;;;3.33;;
32768;SDS011;23049;54.304;8.826;2022-07-29T07:16:23;4.03;;;2.75;;
32768;SDS011;23049;54.304;8.826;2022-07-29T07:18:48;6.85;;;2.90;;
32768;SDS011;23049;54.304;8.826;2022-07-29T07:21:14;6.03;;;2.75;;
32768;SDS011;23049;54.304;8.826;2022-07-29T07:23:40;6.50;;;2.78;;
32768;SDS011;23049;54.304;8.826;2022-07-29T07:26:05;7.20;;;2.97;;
32768;SDS011;23049;54.304;8.826;2022-07-29T07:28:31;7.43;;;2.97;;
32768;SDS011;23049;54.304;8.826;2022-07-29T07:30:57;6.95;;;2.67;;
32768;SDS011;23049;54.304;8.826;2022-07-29T07:33:22;7.75;;;2.97;;
32768;SDS011;23049;54.304;8.826;2022-07-29T07:35:48;11.98;;;3.38;;
32768;SDS011;23049;54.304;8.826;2022-07-29T07:38:14;6.72;;;2.85;;
32768;SDS011;23049;54.304;8.826;2022-07-29T07:40:40;6.32;;;2.83;;
32768;SDS011;23049;54.304;8.826;2022-07-29T07:43:06;7.57;;;3.08;;
32768;SDS011;23049;54.304;8.826;2022-07-29T07:45:32;5.95;;;2.53;;
32768;SDS011;23049;54.304;8.826;2022-07-29T07:48:02;5.45;;;3.03;;
32768;SDS011;23049;54.304;8.826;2022-07-29T07:50:28;8.50;;;2.83;;
32768;SDS011;23049;54.304;8.826;2022-07-29T07:52:54;8.88;;;2.53;;
32768;SDS011;23049;54.304;8.826;2022-07-29T07:55:23;8.40;;;2.92;;
32768;SDS011;23049;54.304;8.826;2022-07-29T07:57:50;6.30;;;2.45;;
32768;SDS011;23049;54.304;8.826;2022-07-29T08:00:16;6.45;;;2.80;;
32768;SDS011;23049;54.304;8.826;2022-07-29T08:02:42;5.47;;;3.10;;
32768;SDS011;23049;54.304;8.826;2022-07-29T08:05:08;7.43;;;2.92;;
32768;SDS011;23049;54.304;8.826;2022-07-29T08:07:35;5.38;;;2.53;;
32768;SDS011;23049;54.304;8.826;2022-07-29T08:12:15;7.07;;;2.60;;
32768;SDS011;23049;54.304;8.826;2022-07-29T08:14:41;5.55;;;2.40;;
32768;SDS011;23049;54.304;8.826;2022-07-29T08:17:06;5.55;;;2.15;;
32768;SDS011;23049;54.304;8.826;2022-07-29T08:19:32;6.22;;;2.47;;
32768;SDS011;23049;54.304;8.826;2022-07-29T08:21:58;6.65;;;2.80;;
32768;SDS011;23049;54.304;8.826;2022-07-29T08:24:23;5.47;;;2.65;;
32768;SDS011;23049;54.304;8.826;2022-07-29T08:27:08;7.75;;;3.15;;
32768;SDS011;23049;54.304;8.826;2022-07-29T08:29:36;5.15;;;2.47;;
32768;SDS011;23049;54.304;8.826;2022-07-29T08:32:03;4.05;;;2.33;;
32768;SDS011;23049;54.304;8.826;2022-07-29T08:34:29;8.95;;;3.17;;
32768;SDS011;23049;54.304;8.826;2022-07-29T08:36:55;4.45;;;2.65;;
32768;SDS011;23049;54.304;8.826;2022-07-29T08:39:22;6.53;;;2.85;;
32768;SDS011;23049;54.304;8.826;2022-07-29T08:41:49;7.53;;;2.80;;
32768;SDS011;23049;54.304;8.826;2022-07-29T08:44:16;9.02;;;2.65;;
32768;SDS011;23049;54.304;8.826;2022-07-29T08:46:46;7.00;;;2.72;;
32768;SDS011;23049;54.304;8.826;2022-07-29T08:49:13;9.20;;;2.92;;
32768;SDS011;23049;54.304;8.826;2022-07-29T08:51:39;10.00;;;3.38;;
32768;SDS011;23049;54.304;8.826;2022-07-29T08:54:08;9.80;;;3.22;;
32768;SDS011;23049;54.304;8.826;2022-07-29T08:56:35;5.40;;;2.88;;
32768;SDS011;23049;54.304;8.826;2022-07-29T08:59:03;12.77;;;2.80;;
32768;SDS011;23049;54.304;8.826;2022-07-29T09:01:30;7.88;;;2.95;;
32768;SDS011;23049;54.304;8.826;2022-07-29T09:03:58;9.98;;;2.97;;
32768;SDS011;23049;54.304;8.826;2022-07-29T09:06:27;9.10;;;2.80;;
32768;SDS011;23049;54.304;8.826;2022-07-29T09:08:58;6.88;;;2.80;;
32768;SDS011;23049;54.304;8.826;2022-07-29T09:11:25;6.15;;;3.00;;
32768;SDS011;23049;54.304;8.826;2022-07-29T09:13:52;7.00;;;3.10;;
32768;SDS011;23049;54.304;8.826;2022-07-29T09:16:17;8.65;;;2.85;;
32768;SDS011;23049;54.304;8.826;2022-07-29T09:18:44;6.13;;;2.80;;
32768;SDS011;23049;54.304;8.826;2022-07-29T09:21:12;6.30;;;3.15;;
32768;SDS011;23049;54.304;8.826;2022-07-29T09:26:32;8.35;;;3.38;;
32768;SDS011;23049;54.304;8.826;2022-07-29T09:28:59;6.47;;;2.55;;
32768;SDS011;23049;54.304;8.826;2022-07-29T09:31:33;5.97;;;3.25;;
32768;SDS011;23049;54.304;8.826;2022-07-29T09:34:00;9.90;;;3.67;;
32768;SDS011;23049;54.304;8.826;2022-07-29T09:36:26;7.22;;;3.33;;
32768;SDS011;23049;54.304;8.826;2022-07-29T09:38:58;6.53;;;3.03;;
32768;SDS011;23049;54.304;8.826;2022-07-29T09:41:25;6.90;;;2.60;;
32768;SDS011;23049;54.304;8.826;2022-07-29T09:43:55;6.82;;;3.33;;
32768;SDS011;23049;54.304;8.826;2022-07-29T09:46:22;6.15;;;2.97;;
32768;SDS011;23049;54.304;8.826;2022-07-29T09:49:06;6.28;;;3.13;;
32768;SDS011;23049;54.304;8.826;2022-07-29T09:51:33;7.22;;;2.95;;
32768;SDS011;23049;54.304;8.826;2022-07-29T09:53:59;7.38;;;3.72;;
32768;SDS011;23049;54.304;8.826;2022-07-29T09:59:08;6.85;;;3.40;;
32768;SDS011;23049;54.304;8.826;2022-07-29T10:01:36;7.22;;;2.97;;
32768;SDS011;23049;54.304;8.826;2022-07-29T10:04:02;7.75;;;2.92;;
32768;SDS011;23049;54.304;8.826;2022-07-29T10:06:28;8.13;;;3.20;;
32768;SDS011;23049;54.304;8.826;2022-07-29T10:08:54;7.50;;;3.38;;
32768;SDS011;23049;54.304;8.826;2022-07-29T10:11:20;5.38;;;2.83;;
32768;SDS011;23049;54.304;8.826;2022-07-29T10:13:46;9.40;;;2.97;;
32768;SDS011;23049;54.304;8.826;2022-07-29T10:16:13;5.82;;;2.70;;
32768;SDS011;23049;54.304;8.826;2022-07-29T10:18:43;8.30;;;2.60;;
32768;SDS011;23049;54.304;8.826;2022-07-29T10:21:12;5.93;;;2.60;;
32768;SDS011;23049;54.304;8.826;2022-07-29T10:23:38;9.65;;;2.65;;
32768;SDS011;23049;54.304;8.826;2022-07-29T10:26:06;6.78;;;2.45;;
32768;SDS011;23049;54.304;8.826;2022-07-29T10:28:32;7.65;;;3.20;;
32768;SDS011;23049;54.304;8.826;2022-07-29T10:31:05;4.28;;;2.60;;
32768;SDS011;23049;54.304;8.826;2022-07-29T10:41:43;7.95;;;2.75;;
32768;SDS011;23049;54.304;8.826;2022-07-29T10:44:26;6.75;;;2.72;;
32768;SDS011;23049;54.304;8.826;2022-07-29T10:46:53;5.05;;;2.60;;
32768;SDS011;23049;54.304;8.826;2022-07-29T10:49:20;4.68;;;2.40;;
32768;SDS011;23049;54.304;8.826;2022-07-29T10:57:14;6.32;;;2.95;;
32768;SDS011;23049;54.304;8.826;2022-07-29T10:59:40;5.90;;;2.83;;
32768;SDS011;23049;54.304;8.826;2022-07-29T11:05:02;10.38;;;2.75;;
32768;SDS011;23049;54.304;8.826;2022-07-29T11:07:31;7.28;;;2.33;;
32768;SDS011;23049;54.304;8.826;2022-07-29T11:15:09;5.10;;;2.30;;
32768;SDS011;23049;54.304;8.826;2022-07-29T11:26:20;4.97;;;2.30;;
32768;SDS011;23049;54.304;8.826;2022-07-29T11:31:40;4.57;;;2.20;;
32768;SDS011;23049;54.304;8.826;2022-07-29T11:34:41;7.75;;;2.33;;
32768;SDS011;23049;54.304;8.826;2022-07-29T11:44:56;6.45;;;2.58;;
32768;SDS011;23049;54.304;8.826;2022-07-29T11:47:22;6.18;;;2.53;;
32768;SDS011;23049;54.304;8.826;2022-07-29T11:49:48;6.22;;;3.08;;
32768;SDS011;23049;54.304;8.826;2022-07-29T11:52:18;8.18;;;2.83;;
32768;SDS011;23049;54.304;8.826;2022-07-29T11:54:44;8.25;;;2.40;;
32768;SDS011;23049;54.304;8.826;2022-07-29T11:57:13;4.88;;;2.80;;
32768;SDS011;23049;54.304;8.826;2022-07-29T11:59:42;7.07;;;2.60;;
32768;SDS011;23049;54.304;8.826;2022-07-29T12:02:09;4.60;;;2.28;;
32768;SDS011;23049;54.304;8.826;2022-07-29T12:04:51;5.82;;;2.60;;
32768;SDS011;23049;54.304;8.826;2022-07-29T12:07:25;6.50;;;2.40;;
32768;SDS011;23049;54.304;8.826;2022-07-29T12:13:38;4.53;;;2.42;;
32768;SDS011;23049;54.304;8.826;2022-07-29T12:23:59;7.40;;;3.13;;
32768;SDS011;23049;54.304;8.826;2022-07-29T12:26:25;7.20;;;2.30;;
32768;SDS011;23049;54.304;8.826;2022-07-29T12:28:51;6.07;;;2.00;;
32768;SDS011;23049;54.304;8.826;2022-07-29T12:31:16;4.00;;;2.40;;
32768;SDS011;23049;54.304;8.826;2022-07-29T12:33:42;3.90;;;2.22;;
32768;SDS011;23049;54.304;8.826;2022-07-29T12:36:17;7.32;;;2.20;;
32768;SDS011;23049;54.304;8.826;2022-07-29T12:38:43;7.38;;;2.22;;
32768;SDS011;23049;54.304;8.826;2022-07-29T12:41:09;7.70;;;2.50;;
32768;SDS011;23049;54.304;8.826;2022-07-29T12:43:35;5.40;;;2.00;;
32768;SDS011;23049;54.304;8.826;2022-07-29T12:46:22;5.63;;;1.90;;
32768;SDS011;23049;54.304;8.826;2022-07-29T12:48:50;4.90;;;2.17;;
32768;SDS011;23049;54.304;8.826;2022-07-29T12:51:25;3.30;;;1.92;;
32768;SDS011;23049;54.304;8.826;2022-07-29T12:56:32;5.57;;;1.85;;
32768;SDS011;23049;54.304;8.826;2022-07-29T12:58:58;5.38;;;2.53;;
32768;SDS011;23049;54.304;8.826;2022-07-29T13:01:24;5.22;;;2.10;;
32768;SDS011;23049;54.304;8.826;2022-07-29T13:03:56;8.90;;;2.20;;
32768;SDS011;23049;54.304;8.826;2022-07-29T13:09:00;4.88;;;2.30;;
32768;SDS011;23049;54.304;8.826;2022-07-29T13:11:29;3.85;;;1.90;;
32768;SDS011;23049;54.304;8.826;2022-07-29T13:13:56;6.43;;;1.88;;
32768;SDS011;23049;54.304;8.826;2022-07-29T13:16:21;6.90;;;2.28;;
32768;SDS011;23049;54.304;8.826;2022-07-29T13:18:47;4.40;;;2.17;;
32768;SDS011;23049;54.304;8.826;2022-07-29T13:21:16;4.28;;;2.30;;
32768;SDS011;23049;54.304;8.826;2022-07-29T13:23:41;7.43;;;3.00;;
32768;SDS011;23049;54.304;8.826;2022-07-29T13:26:10;5.85;;;2.63;;
32768;SDS011;23049;54.304;8.826;2022-07-29T13:28:37;7.00;;;2.60;;
32768;SDS011;23049;54.304;8.826;2022-07-29T13:31:03;5.80;;;2.50;;
32768;SDS011;23049;54.304;8.826;2022-07-29T13:33:29;6.55;;;2.30;;
32768;SDS011;23049;54.304;8.826;2022-07-29T13:35:55;11.07;;;3.03;;
32768;SDS011;23049;54.304;8.826;2022-07-29T13:38:21;6.28;;;2.35;;
32768;SDS011;23049;54.304;8.826;2022-07-29T13:40:47;8.40;;;2.38;;
32768;SDS011;23049;54.304;8.826;2022-07-29T13:43:13;5.15;;;2.25;;
32768;SDS011;23049;54.304;8.826;2022-07-29T13:45:39;5.65;;;2.30;;
32768;SDS011;23049;54.304;8.826;2022-07-29T13:48:05;4.60;;;2.13;;
32768;SDS011;23049;54.304;8.826;2022-07-29T13:50:31;5.40;;;2.40;;
32768;SDS011;23049;54.304;8.826;2022-07-29T13:52:57;7.85;;;2.90;;
32768;SDS011;23049;54.304;8.826;2022-07-29T13:55:23;5.65;;;2.47;;
32768;SDS011;23049;54.304;8.826;2022-07-29T13:57:49;3.63;;;2.58;;
32768;SDS011;23049;54.304;8.826;2022-07-29T14:00:14;6.32;;;2.63;;
32768;SDS011;23049;54.304;8.826;2022-07-29T14:02:41;5.43;;;2.72;;
32768;SDS011;23049;54.304;8.826;2022-07-29T14:05:07;3.17;;;2.00;;
32768;SDS011;23049;54.304;8.826;2022-07-29T14:07:35;5.45;;;2.58;;
32768;SDS011;23049;54.304;8.826;2022-07-29T14:10:04;4.80;;;2.40;;
32768;SDS011;23049;54.304;8.826;2022-07-29T14:12:31;7.50;;;2.88;;
32768;SDS011;23049;54.304;8.826;2022-07-29T14:14:56;7.70;;;2.97;;
32768;SDS011;23049;54.304;8.826;2022-07-29T14:17:22;6.82;;;2.65;;
32768;SDS011;23049;54.304;8.826;2022-07-29T14:19:48;10.10;;;2.30;;
32768;SDS011;23049;54.304;8.826;2022-07-29T14:22:13;8.15;;;3.05;;
32768;SDS011;23049;54.304;8.826;2022-07-29T14:24:39;7.13;;;2.90;;
32768;SDS011;23049;54.304;8.826;2022-07-29T14:27:06;8.75;;;2.67;;
32768;SDS011;23049;54.304;8.826;2022-07-29T14:29:32;7.22;;;2.60;;
32768;SDS011;23049;54.304;8.826;2022-07-29T14:31:59;9.98;;;2.83;;
32768;SDS011;23049;54.304;8.826;2022-07-29T14:34:24;4.80;;;2.50;;
32768;SDS011;23049;54.304;8.826;2022-07-29T14:36:51;5.22;;;3.05;;
32768;SDS011;23049;54.304;8.826;2022-07-29T14:39:20;7.47;;;2.67;;
32768;SDS011;23049;54.304;8.826;2022-07-29T14:41:49;8.68;;;2.50;;
32768;SDS011;23049;54.304;8.826;2022-07-29T14:44:15;7.85;;;2.65;;
32768;SDS011;23049;54.304;8.826;2022-07-29T14:46:42;6.93;;;3.03;;
32768;SDS011;23049;54.304;8.826;2022-07-29T14:49:08;5.18;;;2.35;;
32768;SDS011;23049;54.304;8.826;2022-07-29T14:51:33;9.27;;;2.70;;
32768;SDS011;23049;54.304;8.826;2022-07-29T14:53:59;4.97;;;2.58;;
32768;SDS011;23049;54.304;8.826;2022-07-29T14:56:25;6.97;;;2.67;;
32768;SDS011;23049;54.304;8.826;2022-07-29T15:02:12;7.80;;;2.35;;
32768;SDS011;23049;54.304;8.826;2022-07-29T15:04:38;6.45;;;2.33;;
32768;SDS011;23049;54.304;8.826;2022-07-29T15:07:04;7.97;;;2.75;;
32768;SDS011;23049;54.304;8.826;2022-07-29T15:09:29;6.50;;;2.60;;
32768;SDS011;23049;54.304;8.826;2022-07-29T15:11:55;7.10;;;2.45;;
32768;SDS011;23049;54.304;8.826;2022-07-29T15:14:21;3.80;;;2.17;;
32768;SDS011;23049;54.304;8.826;2022-07-29T15:16:47;4.90;;;2.47;;
32768;SDS011;23049;54.304;8.826;2022-07-29T15:19:13;9.20;;;2.72;;
32768;SDS011;23049;54.304;8.826;2022-07-29T15:21:39;9.10;;;3.22;;
32768;SDS011;23049;54.304;8.826;2022-07-29T15:24:05;5.07;;;2.55;;
32768;SDS011;23049;54.304;8.826;2022-07-29T15:26:32;7.10;;;2.70;;
32768;SDS011;23049;54.304;8.826;2022-07-29T15:28:58;5.35;;;2.55;;
32768;SDS011;23049;54.304;8.826;2022-07-29T15:31:24;7.35;;;2.58;;
32768;SDS011;23049;54.304;8.826;2022-07-29T15:33:50;10.43;;;2.88;;
32768;SDS011;23049;54.304;8.826;2022-07-29T15:36:16;6.65;;;2.70;;
32768;SDS011;23049;54.304;8.826;2022-07-29T15:38:41;5.97;;;2.80;;
32768;SDS011;23049;54.304;8.826;2022-07-29T15:41:09;4.68;;;2.40;;
32768;SDS011;23049;54.304;8.826;2022-07-29T15:43:38;11.25;;;2.85;;
32768;SDS011;23049;54.304;8.826;2022-07-29T15:46:08;8.82;;;2.88;;
32768;SDS011;23049;54.304;8.826;2022-07-29T15:48:56;7.63;;;2.90;;
32768;SDS011;23049;54.304;8.826;2022-07-29T15:51:21;9.50;;;2.65;;
32768;SDS011;23049;54.304;8.826;2022-07-29T15:53:47;5.47;;;2.50;;
32768;SDS011;23049;54.304;8.826;2022-07-29T15:56:13;7.03;;;2.60;;
32768;SDS011;23049;54.304;8.826;2022-07-29T15:58:38;7.40;;;2.58;;
32768;SDS011;23049;54.304;8.826;2022-07-29T16:01:04;10.45;;;2.83;;
32768;SDS011;23049;54.304;8.826;2022-07-29T16:03:29;7.22;;;2.80;;
32768;SDS011;23049;54.304;8.826;2022-07-29T16:05:55;5.53;;;2.15;;
32768;SDS011;23049;54.304;8.826;2022-07-29T16:08:21;10.45;;;3.35;;
32768;SDS011;23049;54.304;8.826;2022-07-29T16:10:46;5.32;;;2.83;;
32768;SDS011;23049;54.304;8.826;2022-07-29T16:13:12;4.75;;;2.42;;
32768;SDS011;23049;54.304;8.826;2022-07-29T16:15:38;8.30;;;2.70;;